sensor_id;sensor_type;location;lat;lon;timestamp;P1;durP1;ratioP1;P2;durP2;ratioP2
77168;SDS011;66281;45.114;20.730;2023-05-19T00:09:02;23.05;;;12.70;;
77168;SDS011;66281;45.114;20.730;2023-05-19T00:19:08;16.30;;;10.95;;
77168;SDS011;66281;45.114;20.730;2023-05-19T00:29:08;23.30;;;11.90;;
77168;SDS011;66281;45.114;20.730;2023-05-19T00:39:09;20.97;;;10.70;;
77168;SDS011;66281;45.114;20.730;2023-05-19T00:49:10;22.13;;;10.88;;
77168;SDS011;66281;45.114;20.730;2023-05-19T00:59:10;18.05;;;11.35;;
77168;SDS011;66281;45.114;20.730;2023-05-19T01:09:11;23.77;;;12.13;;
77168;SDS011;66281;45.114;20.730;2023-05-19T01:40:09;28.13;;;13.10;;
77168;SDS011;66281;45.114;20.730;2023-05-19T01:50:10;27.97;;;12.07;;
77168;SDS011;66281;45.114;20.730;2023-05-19T02:10:21;37.97;;;13.50;;
77168;SDS011;66281;45.114;20.730;2023-05-19T02:20:26;30.55;;;14.15;;
77168;SDS011;66281;45.114;20.730;2023-05-19T02:30:27;41.93;;;14.63;;
77168;SDS011;66281;45.114;20.730;2023-05-19T02:40:27;44.80;;;14.50;;
77168;SDS011;66281;45.114;20.730;2023-05-19T02:50:28;48.50;;;13.97;;
77168;SDS011;66281;45.114;20.730;2023-05-19T03:00:29;41.87;;;12.40;;
77168;SDS011;66281;45.114;20.730;2023-05-19T03:10:31;57.77;;;14.03;;
77168;SDS011;66281;45.114;20.730;2023-05-19T03:20:31;53.40;;;13.45;;
77168;SDS011;66281;45.114;20.730;2023-05-19T03:30:32;42.08;;;11.55;;
77168;SDS011;66281;45.114;20.730;2023-05-19T03:40:42;51.57;;;12.97;;
77168;SDS011;66281;45.114;20.730;2023-05-19T03:50:44;65.72;;;13.90;;
77168;SDS011;66281;45.114;20.730;2023-05-19T04:00:50;47.50;;;14.17;;
77168;SDS011;66281;45.114;20.730;2023-05-19T04:10:50;47.90;;;14.02;;
77168;SDS011;66281;45.114;20.730;2023-05-19T04:20:51;27.40;;;12.57;;
77168;SDS011;66281;45.114;20.730;2023-05-19T04:30:53;27.43;;;14.63;;
77168;SDS011;66281;45.114;20.730;2023-05-19T04:40:54;26.97;;;13.70;;
77168;SDS011;66281;45.114;20.730;2023-05-19T04:50:54;26.80;;;14.35;;
77168;SDS011;66281;45.114;20.730;2023-05-19T05:00:55;34.67;;;21.43;;
77168;SDS011;66281;45.114;20.730;2023-05-19T05:10:56;23.00;;;13.47;;
77168;SDS011;66281;45.114;20.730;2023-05-19T05:20:57;18.97;;;12.23;;
77168;SDS011;66281;45.114;20.730;2023-05-19T05:30:58;18.03;;;11.70;;
77168;SDS011;66281;45.114;20.730;2023-05-19T05:40:59;19.37;;;11.00;;
77168;SDS011;66281;45.114;20.730;2023-05-19T05:51:01;17.33;;;11.10;;
77168;SDS011;66281;45.114;20.730;2023-05-19T06:01:05;16.00;;;11.13;;
77168;SDS011;66281;45.114;20.730;2023-05-19T06:11:06;21.20;;;11.93;;
77168;SDS011;66281;45.114;20.730;2023-05-19T06:21:07;19.63;;;12.13;;
77168;SDS011;66281;45.114;20.730;2023-05-19T06:31:08;17.33;;;11.57;;
77168;SDS011;66281;45.114;20.730;2023-05-19T06:41:20;15.93;;;10.10;;
77168;SDS011;66281;45.114;20.730;2023-05-19T06:51:21;15.57;;;10.00;;
77168;SDS011;66281;45.114;20.730;2023-05-19T07:01:26;16.13;;;9.60;;
77168;SDS011;66281;45.114;20.730;2023-05-19T07:11:29;18.50;;;9.70;;
77168;SDS011;66281;45.114;20.730;2023-05-19T07:21:30;19.80;;;11.47;;
77168;SDS011;66281;45.114;20.730;2023-05-19T07:31:30;12.57;;;9.40;;
77168;SDS011;66281;45.114;20.730;2023-05-19T07:41:31;13.65;;;9.13;;
77168;SDS011;66281;45.114;20.730;2023-05-19T07:51:31;12.70;;;8.53;;
77168;SDS011;66281;45.114;20.730;2023-05-19T08:01:32;14.23;;;8.23;;
77168;SDS011;66281;45.114;20.730;2023-05-19T08:11:33;14.43;;;9.00;;
77168;SDS011;66281;45.114;20.730;2023-05-19T08:21:34;14.13;;;9.43;;
77168;SDS011;66281;45.114;20.730;2023-05-19T08:31:34;10.13;;;7.60;;
77168;SDS011;66281;45.114;20.730;2023-05-19T08:41:35;19.70;;;11.90;;
77168;SDS011;66281;45.114;20.730;2023-05-19T09:02:13;18.00;;;10.65;;
77168;SDS011;66281;45.114;20.730;2023-05-19T09:12:14;14.97;;;11.30;;
77168;SDS011;66281;45.114;20.730;2023-05-19T09:22:15;12.27;;;10.00;;
77168;SDS011;66281;45.114;20.730;2023-05-19T09:32:25;15.90;;;9.67;;
77168;SDS011;66281;45.114;20.730;2023-05-19T09:42:26;13.00;;;9.67;;
77168;SDS011;66281;45.114;20.730;2023-05-19T09:52:27;11.33;;;9.00;;
77168;SDS011;66281;45.114;20.730;2023-05-19T10:02:27;15.53;;;10.43;;
77168;SDS011;66281;45.114;20.730;2023-05-19T10:12:29;13.73;;;9.85;;
77168;SDS011;66281;45.114;20.730;2023-05-19T10:22:30;12.77;;;9.60;;
77168;SDS011;66281;45.114;20.730;2023-05-19T10:32:31;11.20;;;9.37;;
77168;SDS011;66281;45.114;20.730;2023-05-19T10:52:38;10.73;;;9.33;;
77168;SDS011;66281;45.114;20.730;2023-05-19T11:02:39;10.63;;;9.47;;
77168;SDS011;66281;45.114;20.730;2023-05-19T11:12:43;11.43;;;9.93;;
77168;SDS011;66281;45.114;20.730;2023-05-19T11:22:45;13.03;;;10.63;;
77168;SDS011;66281;45.114;20.730;2023-05-19T11:33:02;12.27;;;10.93;;
77168;SDS011;66281;45.114;20.730;2023-05-19T11:43:03;15.87;;;11.33;;
77168;SDS011;66281;45.114;20.730;2023-05-19T11:53:03;12.48;;;10.73;;
77168;SDS011;66281;45.114;20.730;2023-05-19T12:03:04;11.20;;;10.00;;
77168;SDS011;66281;45.114;20.730;2023-05-19T12:13:05;13.53;;;10.30;;
77168;SDS011;66281;45.114;20.730;2023-05-19T12:23:06;11.48;;;9.95;;
77168;SDS011;66281;45.114;20.730;2023-05-19T12:33:06;10.73;;;9.67;;
77168;SDS011;66281;45.114;20.730;2023-05-19T12:43:07;11.27;;;10.13;;
77168;SDS011;66281;45.114;20.730;2023-05-19T12:53:09;11.13;;;10.03;;
77168;SDS011;66281;45.114;20.730;2023-05-19T13:03:17;13.10;;;11.70;;
77168;SDS011;66281;45.114;20.730;2023-05-19T13:13:18;16.35;;;11.68;;
77168;SDS011;66281;45.114;20.730;2023-05-19T13:23:18;11.80;;;10.60;;
77168;SDS011;66281;45.114;20.730;2023-05-19T13:33:19;10.73;;;9.57;;
77168;SDS011;66281;45.114;20.730;2023-05-19T13:43:20;12.40;;;10.45;;
77168;SDS011;66281;45.114;20.730;2023-05-19T13:53:20;9.70;;;8.80;;
77168;SDS011;66281;45.114;20.730;2023-05-19T14:03:21;10.07;;;9.07;;
77168;SDS011;66281;45.114;20.730;2023-05-19T14:13:21;11.67;;;8.17;;
77168;SDS011;66281;45.114;20.730;2023-05-19T14:23:22;11.10;;;9.93;;
77168;SDS011;66281;45.114;20.730;2023-05-19T14:33:23;12.57;;;9.53;;
77168;SDS011;66281;45.114;20.730;2023-05-19T14:43:23;10.50;;;8.18;;
77168;SDS011;66281;45.114;20.730;2023-05-19T14:53:24;15.17;;;9.83;;
77168;SDS011;66281;45.114;20.730;2023-05-19T15:03:25;14.87;;;11.23;;
77168;SDS011;66281;45.114;20.730;2023-05-19T15:13:25;18.17;;;10.87;;
77168;SDS011;66281;45.114;20.730;2023-05-19T15:23:26;19.27;;;8.68;;
77168;SDS011;66281;45.114;20.730;2023-05-19T15:33:26;12.47;;;10.40;;
77168;SDS011;66281;45.114;20.730;2023-05-19T15:43:27;13.07;;;10.40;;
77168;SDS011;66281;45.114;20.730;2023-05-19T15:53:27;12.13;;;10.68;;
77168;SDS011;66281;45.114;20.730;2023-05-19T16:03:28;11.95;;;9.57;;
77168;SDS011;66281;45.114;20.730;2023-05-19T16:13:29;12.55;;;10.27;;
77168;SDS011;66281;45.114;20.730;2023-05-19T16:23:29;16.90;;;12.07;;
77168;SDS011;66281;45.114;20.730;2023-05-19T16:33:30;17.33;;;11.88;;
77168;SDS011;66281;45.114;20.730;2023-05-19T16:43:30;18.10;;;12.13;;
77168;SDS011;66281;45.114;20.730;2023-05-19T16:53:32;21.60;;;9.03;;
77168;SDS011;66281;45.114;20.730;2023-05-19T17:03:33;18.33;;;9.77;;
77168;SDS011;66281;45.114;20.730;2023-05-19T17:13:33;10.02;;;7.68;;
77168;SDS011;66281;45.114;20.730;2023-05-19T17:23:34;15.73;;;8.00;;
77168;SDS011;66281;45.114;20.730;2023-05-19T17:33:34;12.07;;;8.90;;
77168;SDS011;66281;45.114;20.730;2023-05-19T17:43:36;15.23;;;11.77;;
77168;SDS011;66281;45.114;20.730;2023-05-19T17:53:37;17.60;;;10.10;;
77168;SDS011;66281;45.114;20.730;2023-05-19T18:03:37;12.07;;;9.07;;
77168;SDS011;66281;45.114;20.730;2023-05-19T18:13:38;16.73;;;11.07;;
77168;SDS011;66281;45.114;20.730;2023-05-19T18:23:39;14.18;;;11.10;;
77168;SDS011;66281;45.114;20.730;2023-05-19T18:33:40;24.20;;;13.93;;
77168;SDS011;66281;45.114;20.730;2023-05-19T18:43:42;33.37;;;15.53;;
77168;SDS011;66281;45.114;20.730;2023-05-19T18:53:43;26.37;;;16.17;;
77168;SDS011;66281;45.114;20.730;2023-05-19T19:03:44;27.23;;;18.60;;
77168;SDS011;66281;45.114;20.730;2023-05-19T19:13:44;45.83;;;25.03;;
77168;SDS011;66281;45.114;20.730;2023-05-19T19:23:45;58.90;;;21.50;;
77168;SDS011;66281;45.114;20.730;2023-05-19T19:33:45;102.55;;;33.75;;
77168;SDS011;66281;45.114;20.730;2023-05-19T19:43:46;27.05;;;13.95;;
77168;SDS011;66281;45.114;20.730;2023-05-19T19:53:46;26.75;;;13.85;;
77168;SDS011;66281;45.114;20.730;2023-05-19T20:03:47;21.25;;;12.90;;
77168;SDS011;66281;45.114;20.730;2023-05-19T20:13:47;22.33;;;14.88;;
77168;SDS011;66281;45.114;20.730;2023-05-19T20:23:48;22.27;;;14.35;;
77168;SDS011;66281;45.114;20.730;2023-05-19T20:33:48;15.63;;;12.35;;
77168;SDS011;66281;45.114;20.730;2023-05-19T20:43:49;20.97;;;15.00;;
77168;SDS011;66281;45.114;20.730;2023-05-19T20:53:50;18.07;;;13.90;;
77168;SDS011;66281;45.114;20.730;2023-05-19T21:03:50;18.80;;;13.97;;
77168;SDS011;66281;45.114;20.730;2023-05-19T21:13:51;18.92;;;12.70;;
77168;SDS011;66281;45.114;20.730;2023-05-19T21:23:51;19.07;;;12.50;;
77168;SDS011;66281;45.114;20.730;2023-05-19T21:33:52;18.23;;;12.35;;
77168;SDS011;66281;45.114;20.730;2023-05-19T21:43:52;19.73;;;13.77;;
77168;SDS011;66281;45.114;20.730;2023-05-19T21:53:53;19.30;;;13.80;;
77168;SDS011;66281;45.114;20.730;2023-05-19T22:03:53;17.02;;;13.80;;
77168;SDS011;66281;45.114;20.730;2023-05-19T22:13:54;20.77;;;13.60;;
77168;SDS011;66281;45.114;20.730;2023-05-19T22:23:54;20.25;;;13.10;;
77168;SDS011;66281;45.114;20.730;2023-05-19T22:33:55;22.80;;;13.80;;
77168;SDS011;66281;45.114;20.730;2023-05-19T22:43:55;21.60;;;12.73;;
77168;SDS011;66281;45.114;20.730;2023-05-19T22:53:56;19.08;;;13.32;;
77168;SDS011;66281;45.114;20.730;2023-05-19T23:03:57;25.20;;;16.65;;
77168;SDS011;66281;45.114;20.730;2023-05-19T23:13:57;22.33;;;15.45;;
77168;SDS011;66281;45.114;20.730;2023-05-19T23:23:58;19.42;;;13.95;;
77168;SDS011;66281;45.114;20.730;2023-05-19T23:33:58;22.05;;;13.63;;
77168;SDS011;66281;45.114;20.730;2023-05-19T23:43:59;18.40;;;12.47;;
77168;SDS011;66281;45.114;20.730;2023-05-19T23:53:59;16.63;;;12.07;;
